Time;durP1;ratioP1;P1;durP2;ratioP2;P2;SDS_P1;SDS_P2;PMS_P1;PMS_P2;Temp;Humidity;BMP_temperature;BMP_pressure;BME280_temperature;BME280_humidity;BME280_pressure;Samples;Min_cycle;Max_cycle;Signal;HPM_P1;HPM_P2
2021/12/06 00:00:29;;;;;;;3.25;2.95;;;;;;;12.40;70.49;100603.19;4976392;28;102376;-50
2021/12/06 00:02:59;;;;;;;4.40;3.28;;;;;;;12.40;70.79;100608.66;4974933;28;102468;-50
2021/12/06 00:05:27;;;;;;;3.35;3.05;;;;;;;12.41;70.57;100604.84;4965903;28;102181;-50
2021/12/06 00:07:54;;;;;;;2.90;2.63;;;;;;;12.39;70.76;100599.66;4972885;28;103791;-50
2021/12/06 00:10:21;;;;;;;3.13;2.60;;;;;;;12.40;70.35;100603.19;4973303;28;102275;-50
2021/12/06 00:12:50;;;;;;;3.22;2.90;;;;;;;12.40;70.45;100597.72;4977295;28;102173;-50
2021/12/06 00:15:17;;;;;;;4.63;3.45;;;;;;;12.41;70.63;100591.19;4980556;28;102603;-51
2021/12/06 00:17:44;;;;;;;3.38;3.08;;;;;;;12.40;70.80;100586.81;4972408;28;103418;-50
2021/12/06 00:20:13;;;;;;;6.10;2.58;;;;;;;12.40;70.45;100581.34;4972426;28;103343;-50
2021/12/06 00:22:39;;;;;;;3.20;2.90;;;;;;;12.40;70.64;100593.09;4980015;28;102205;-50
2021/12/06 00:25:09;;;;;;;4.40;3.35;;;;;;;12.40;70.48;100586.81;4973759;28;102235;-50
2021/12/06 00:27:38;;;;;;;3.45;2.78;;;;;;;12.39;70.67;100585.19;4972851;28;102945;-50
2021/12/06 00:30:11;;;;;;;3.63;2.63;;;;;;;12.40;70.51;100582.16;4966914;28;102354;-51
2021/12/06 00:32:39;;;;;;;3.08;2.47;;;;;;;12.41;70.63;100580.28;4972845;28;102439;-51
2021/12/06 00:35:07;;;;;;;3.90;2.70;;;;;;;12.41;70.54;100583.00;4980553;28;102352;-50
2021/12/06 00:37:55;;;;;;;2.40;2.20;;;;;;;12.41;71.08;100583.00;4968827;28;104054;-50
2021/12/06 00:40:23;;;;;;;5.22;2.88;;;;;;;12.41;70.73;100588.47;4965009;28;102441;-50
2021/12/06 00:42:50;;;;;;;2.67;2.47;;;;;;;12.41;70.51;100588.47;4954234;28;102511;-51
2021/12/06 00:45:18;;;;;;;3.22;2.58;;;;;;;12.42;70.62;100590.09;4954050;28;102682;-51
2021/12/06 00:47:45;;;;;;;3.10;2.40;;;;;;;12.42;70.71;100584.63;4954630;28;103957;-51
2021/12/06 00:50:13;;;;;;;4.22;2.67;;;;;;;12.42;70.75;100584.63;4950473;28;102328;-51
2021/12/06 00:52:39;;;;;;;3.45;2.58;;;;;;;12.42;70.58;100590.09;4961074;28;102000;-50
2021/12/06 00:55:07;;;;;;;2.95;2.65;;;;;;;12.42;70.98;100585.44;4973474;28;102185;-50
2021/12/06 00:57:34;;;;;;;2.57;2.37;;;;;;;12.42;70.64;100590.09;4969786;28;104111;-50
2021/12/06 01:00:00;;;;;;;2.95;2.55;;;;;;;12.42;70.69;100584.63;4961231;28;102169;-50
2021/12/06 01:02:28;;;;;;;3.15;2.38;;;;;;;12.41;70.79;100583.81;4980196;28;102442;-50
2021/12/06 01:04:54;;;;;;;3.50;2.88;;;;;;;12.42;70.44;100579.97;4976444;28;102482;-50
2021/12/06 01:07:21;;;;;;;3.42;2.35;;;;;;;12.43;70.78;100580.78;4978418;28;103704;-50
2021/12/06 01:09:47;;;;;;;4.03;2.50;;;;;;;12.42;70.82;100584.63;4976500;28;102421;-50
2021/12/06 01:12:15;;;;;;;2.50;2.30;;;;;;;12.42;70.83;100579.16;4963394;28;102445;-50
2021/12/06 01:14:43;;;;;;;3.92;2.60;;;;;;;12.42;71.04;100573.72;4954623;28;103275;-50
2021/12/06 01:17:09;;;;;;;3.33;2.50;;;;;;;12.44;70.99;100569.59;4972545;28;103842;-51
2021/12/06 01:19:38;;;;;;;2.53;2.30;;;;;;;12.43;70.72;100578.88;4979772;28;102247;-50
2021/12/06 01:22:18;;;;;;;2.58;2.38;;;;;;;12.45;70.80;100578.59;4975233;28;101998;-50
2021/12/06 01:24:53;;;;;;;2.53;2.33;;;;;;;12.43;70.68;100558.97;4970009;28;102420;-50
2021/12/06 01:41:33;;;;;;;2.55;1.92;;;;;;;12.43;70.86;100558.97;4978461;28;102657;-51
2021/12/06 01:44:05;;;;;;;2.93;2.23;;;;;;;12.43;70.69;100559.75;4978586;28;102411;-50
2021/12/06 01:46:33;;;;;;;3.40;2.28;;;;;;;12.43;70.91;100554.31;4980152;28;102253;-50
2021/12/06 01:49:00;;;;;;;3.05;2.42;;;;;;;12.43;70.84;100553.50;4984369;28;104086;-50
2021/12/06 01:51:28;;;;;;;2.38;2.17;;;;;;;12.43;70.97;100554.31;4975262;28;102120;-50
2021/12/06 01:53:54;;;;;;;3.05;2.38;;;;;;;12.43;70.83;100553.50;4975711;28;102194;-50
2021/12/06 01:56:20;;;;;;;3.40;2.75;;;;;;;12.44;71.14;100553.22;4975779;28;102296;-51
2021/12/06 01:58:47;;;;;;;2.90;2.42;;;;;;;12.43;70.63;100554.31;4978643;28;103889;-50
2021/12/06 02:01:14;;;;;;;2.17;1.98;;;;;;;12.44;70.93;100544.19;4976204;28;102526;-50
2021/12/06 02:03:41;;;;;;;2.55;1.90;;;;;;;12.43;70.80;100546.13;4974510;28;102222;-50
2021/12/06 02:06:07;;;;;;;3.08;2.60;;;;;;;12.43;70.71;100543.38;4977299;28;102247;-50
2021/12/06 02:08:40;;;;;;;2.95;2.33;;;;;;;12.43;71.05;100546.13;4969778;28;103896;-50
2021/12/06 02:11:07;;;;;;;2.72;2.25;;;;;;;12.43;70.82;100548.84;4979389;28;103675;-50
2021/12/06 02:13:48;;;;;;;3.65;2.35;;;;;;;12.43;71.19;100539.84;4975713;28;103310;-51
2021/12/06 02:16:18;;;;;;;5.20;2.53;;;;;;;12.44;70.93;100547.78;4966865;28;102867;-50
2021/12/06 02:18:50;;;;;;;2.47;1.90;;;;;;;12.44;71.08;100544.19;4960163;28;103913;-50
2021/12/06 02:21:24;;;;;;;2.85;2.30;;;;;;;12.44;70.94;100547.78;4967896;28;102513;-51
2021/12/06 02:23:52;;;;;;;3.85;2.08;;;;;;;12.45;70.85;100548.56;4972293;28;103013;-51
2021/12/06 02:26:19;;;;;;;3.55;2.47;;;;;;;12.43;70.97;100548.03;4956734;28;102569;-51
2021/12/06 02:28:46;;;;;;;4.03;2.55;;;;;;;12.43;70.99;100548.84;4970109;28;103268;-50
2021/12/06 02:31:13;;;;;;;2.40;2.20;;;;;;;12.44;70.91;100550.50;4976615;28;102381;-50
2021/12/06 02:33:39;;;;;;;4.32;2.58;;;;;;;12.44;71.09;100545.03;4970053;28;102111;-50
2021/12/06 02:36:07;;;;;;;3.10;2.40;;;;;;;12.44;70.84;100553.22;4973416;28;102159;-50
2021/12/06 02:38:35;;;;;;;2.17;1.98;;;;;;;12.44;70.91;100546.94;4958354;28;103925;-50
2021/12/06 02:41:01;;;;;;;3.05;2.28;;;;;;;12.43;71.04;100542.59;4956553;28;102140;-50
2021/12/06 02:43:28;;;;;;;3.60;2.53;;;;;;;12.43;70.88;100548.84;4962212;28;102417;-50
2021/12/06 02:45:55;;;;;;;3.08;2.67;;;;;;;12.45;70.89;100554.03;4958259;28;102405;-50
2021/12/06 02:48:22;;;;;;;4.60;2.25;;;;;;;12.45;71.08;100552.13;4980976;28;103917;-50
2021/12/06 02:50:56;;;;;;;3.63;1.95;;;;;;;12.44;70.85;100547.78;4977490;28;102260;-51
2021/12/06 02:53:25;;;;;;;4.60;2.30;;;;;;;12.44;70.94;100550.50;4978042;28;102187;-50
2021/12/06 02:55:58;;;;;;;3.67;2.80;;;;;;;12.45;71.14;100559.50;4981968;28;102571;-50
2021/12/06 03:01:06;;;;;;;4.63;2.25;;;;;;;12.45;71.06;100556.78;4955627;28;102122;-50
2021/12/06 03:03:33;;;;;;;3.03;2.20;;;;;;;12.46;70.74;100552.94;4976649;28;102439;-50
2021/12/06 03:06:01;;;;;;;3.13;2.55;;;;;;;12.45;70.89;100551.31;4977122;28;102209;-50
2021/12/06 03:08:34;;;;;;;3.40;2.30;;;;;;;12.43;71.26;100548.84;4971074;28;103930;-50
2021/12/06 03:11:03;;;;;;;3.63;2.20;;;;;;;12.44;71.01;100550.50;4975955;28;102366;-50
2021/12/06 03:13:29;;;;;;;4.35;2.55;;;;;;;12.44;71.08;100539.59;4974153;28;102516;-50
2021/12/06 03:15:56;;;;;;;2.88;2.33;;;;;;;12.45;70.94;100540.38;4968188;28;102287;-50
2021/12/06 03:18:23;;;;;;;4.45;2.33;;;;;;;12.44;71.16;100539.59;4960987;28;103984;-50
2021/12/06 03:20:49;;;;;;;4.05;2.67;;;;;;;12.43;70.88;100526.22;4964092;28;101995;-50
2021/12/06 03:23:16;;;;;;;4.55;2.30;;;;;;;12.44;70.93;100538.75;4955164;28;102218;-50
2021/12/06 03:25:43;;;;;;;4.38;2.75;;;;;;;12.44;71.10;100528.66;4966813;28;102256;-50
2021/12/06 03:28:11;;;;;;;3.83;2.33;;;;;;;12.45;71.32;100526.75;4972964;28;104651;-50
2021/12/06 03:30:38;;;;;;;3.58;2.47;;;;;;;12.45;71.32;100513.09;4974753;28;102224;-50
2021/12/06 03:33:04;;;;;;;3.00;2.40;;;;;;;12.45;70.93;100521.28;4974757;28;103596;-51
2021/12/06 03:35:31;;;;;;;3.67;2.50;;;;;;;12.45;71.17;100526.75;4988705;28;102296;-51
2021/12/06 03:37:58;;;;;;;4.00;2.45;;;;;;;12.43;71.40;100521.56;4973797;28;104079;-50
2021/12/06 03:40:24;;;;;;;3.65;2.55;;;;;;;12.45;70.84;100532.19;4973776;28;102251;-50
2021/12/06 03:42:51;;;;;;;3.63;2.10;;;;;;;12.45;71.16;100532.19;4970772;28;102765;-50
2021/12/06 03:45:19;;;;;;;5.38;2.22;;;;;;;12.45;71.16;100529.47;4967009;28;103571;-50
2021/12/06 03:47:45;;;;;;;4.03;2.50;;;;;;;12.45;71.28;100535.75;4954111;28;103937;-50
2021/12/06 03:50:14;;;;;;;3.90;2.28;;;;;;;12.44;71.19;100531.41;4949854;28;102470;-50
2021/12/06 03:52:41;;;;;;;5.18;2.42;;;;;;;12.44;70.97;100534.13;4958862;28;102662;-50
2021/12/06 03:55:09;;;;;;;5.80;2.80;;;;;;;12.45;71.14;100534.94;4956912;28;102233;-50
2021/12/06 03:57:36;;;;;;;5.38;2.58;;;;;;;12.43;71.15;100535.19;4952168;28;104055;-50
2021/12/06 04:00:05;;;;;;;5.95;2.70;;;;;;;12.44;71.53;100534.13;4953230;28;102256;-50
2021/12/06 04:02:34;;;;;;;4.10;2.50;;;;;;;12.45;71.14;100543.13;4952468;28;103232;-50
2021/12/06 04:05:00;;;;;;;4.40;2.63;;;;;;;12.45;71.39;100540.38;4953853;28;102573;-50
2021/12/06 04:07:26;;;;;;;2.97;2.33;;;;;;;12.45;71.08;100540.38;4954170;28;103918;-50
2021/12/06 04:09:53;;;;;;;4.38;2.38;;;;;;;12.45;71.29;100540.38;4952524;28;102853;-50
2021/12/06 04:12:19;;;;;;;4.18;2.33;;;;;;;12.45;71.22;100537.66;4954586;28;103014;-50
2021/12/06 04:14:47;;;;;;;2.78;2.25;;;;;;;12.46;71.55;100531.09;4963927;28;102225;-50
2021/12/06 04:17:14;;;;;;;4.20;2.25;;;;;;;12.46;71.51;100536.56;4967157;28;103935;-50
2021/12/06 04:19:42;;;;;;;4.65;2.53;;;;;;;12.45;71.24;100535.75;4955884;28;102512;-50
2021/12/06 04:22:10;;;;;;;4.15;2.40;;;;;;;12.46;nan;100525.63;4946724;28;102520;-50
2021/12/06 04:24:37;;;;;;;3.20;2.40;;;;;;;12.45;71.49;100537.66;4958891;28;102603;-50
2021/12/06 04:27:13;;;;;;;6.35;2.63;;;;;;;12.46;71.39;100536.56;4953117;28;103912;-50
2021/12/06 04:29:41;;;;;;;4.30;2.47;;;;;;;12.45;71.16;100543.13;4943562;28;102304;-50
2021/12/06 04:32:09;;;;;;;3.33;2.67;;;;;;;12.44;71.33;100533.28;4969833;28;102058;-50
2021/12/06 04:34:36;;;;;;;3.67;2.50;;;;;;;12.45;71.39;100538.47;4975441;28;102581;-50
2021/12/06 04:37:04;;;;;;;4.28;2.50;;;;;;;12.45;71.37;100541.19;4974615;28;104020;-50
2021/12/06 04:39:31;;;;;;;3.65;2.38;;;;;;;12.45;71.30;100552.13;4970217;28;102557;-50
2021/12/06 04:41:57;;;;;;;4.40;2.63;;;;;;;12.45;71.40;100545.84;4952514;28;102635;-50
2021/12/06 04:44:23;;;;;;;3.30;2.60;;;;;;;12.46;71.43;100542.00;4976442;28;102150;-51
2021/12/06 04:46:50;;;;;;;4.07;2.53;;;;;;;12.45;71.14;100540.38;4975433;28;103713;-51
2021/12/06 04:49:16;;;;;;;4.40;2.55;;;;;;;12.46;71.17;100536.56;4974803;28;102088;-50
2021/12/06 04:51:46;;;;;;;3.92;2.55;;;;;;;12.46;71.39;100544.75;4975347;28;102270;-53
2021/12/06 04:54:15;;;;;;;5.20;2.67;;;;;;;12.46;71.19;100547.47;4980541;28;102771;-51
2021/12/06 04:56:43;;;;;;;;;;;;;;;12.45;71.50;100538.47;4975839;28;103880;-50
2021/12/06 04:59:14;;;;;;;4.97;2.47;;;;;;;12.46;71.46;100544.75;4971467;28;102170;-51
2021/12/06 05:01:41;;;;;;;5.50;2.88;;;;;;;12.47;71.56;100538.16;4950710;28;102165;-50
2021/12/06 05:04:10;;;;;;;5.93;3.20;;;;;;;12.46;71.58;100542.81;4950852;28;102233;-51
2021/12/06 05:06:39;;;;;;;6.03;2.92;;;;;;;12.46;71.55;100529.19;4953086;28;104070;-50
2021/12/06 05:09:10;;;;;;;6.93;2.83;;;;;;;12.45;71.41;100541.19;4951069;28;102370;-50
2021/12/06 05:11:38;;;;;;;6.43;2.88;;;;;;;12.46;71.48;100545.56;4970653;28;102418;-50
2021/12/06 05:14:04;;;;;;;5.65;3.03;;;;;;;12.47;71.61;100540.91;4962513;28;102209;-50
2021/12/06 05:16:33;;;;;;;3.70;2.53;;;;;;;12.46;71.27;100542.81;4968394;28;103806;-50
2021/12/06 05:19:00;;;;;;;4.43;2.70;;;;;;;12.46;71.48;100542.81;4974274;28;102067;-50
2021/12/06 05:21:26;;;;;;;3.60;2.35;;;;;;;12.47;71.52;100543.63;4972457;28;102383;-50
2021/12/06 05:23:53;;;;;;;4.00;2.85;;;;;;;12.47;71.61;100540.91;4975650;28;102629;-50
2021/12/06 05:26:20;;;;;;;5.25;2.88;;;;;;;12.48;71.34;100545.28;4972928;28;104092;-51
2021/12/06 05:28:49;;;;;;;3.67;2.60;;;;;;;12.47;71.91;100549.09;4972655;28;102705;-50
2021/12/06 05:31:19;;;;;;;4.47;2.33;;;;;;;12.46;71.48;100542.81;4971195;28;102717;-50
2021/12/06 05:33:49;;;;;;;6.53;2.65;;;;;;;12.48;71.33;100548.00;4969139;28;102674;-50
2021/12/06 05:36:16;;;;;;;24.88;4.53;;;;;;;12.48;71.45;100550.75;4963692;28;104055;-50
2021/12/06 05:38:43;;;;;;;7.32;2.72;;;;;;;12.48;71.54;100531.63;4954689;28;102113;-50
2021/12/06 05:41:09;;;;;;;4.43;2.42;;;;;;;12.48;71.51;100539.81;4948521;28;102329;-50
2021/12/06 05:43:36;;;;;;;4.60;2.33;;;;;;;12.48;71.56;100537.91;4956779;28;104799;-50
2021/12/06 05:46:04;;;;;;;4.90;2.65;;;;;;;12.49;71.55;100541.44;4973987;28;103960;-51
2021/12/06 05:48:31;;;;;;;;;;;;;;;12.49;71.38;100535.97;4963770;28;102245;-51
2021/12/06 05:50:58;;;;;;;3.83;2.38;;;;;;;12.49;71.36;100538.72;4966801;28;102251;-51
2021/12/06 05:53:25;;;;;;;4.20;2.55;;;;;;;12.49;71.41;100549.63;4972808;28;102251;-50
2021/12/06 05:55:52;;;;;;;8.98;2.83;;;;;;;12.50;71.68;100543.06;4952719;28;103860;-50
2021/12/06 05:58:22;;;;;;;4.85;2.40;;;;;;;12.49;71.72;100538.72;4966024;28;102092;-51
2021/12/06 06:00:49;;;;;;;5.47;2.70;;;;;;;12.50;71.70;100543.06;4959016;28;102388;-50
2021/12/06 06:03:17;;;;;;;3.67;2.42;;;;;;;12.50;71.60;100545.78;4971921;28;102515;-50
2021/12/06 06:05:44;;;;;;;2.20;2.00;;;;;;;12.49;71.95;100547.72;4980602;28;104049;-50
2021/12/06 06:08:12;;;;;;;4.95;2.75;;;;;;;12.50;71.63;100548.53;4973339;28;102074;-50
2021/12/06 06:10:38;;;;;;;5.00;3.03;;;;;;;12.51;71.60;100552.88;4976696;28;102286;-50
2021/12/06 06:13:07;;;;;;;5.97;2.78;;;;;;;12.51;71.62;100550.13;4969851;28;103699;-51
2021/12/06 06:15:34;;;;;;;4.70;2.60;;;;;;;12.50;71.75;100549.31;4976060;28;104089;-50
2021/12/06 06:18:02;;;;;;;5.97;2.80;;;;;;;12.51;71.70;100550.13;4969744;28;102710;-50
2021/12/06 06:20:35;;;;;;;4.63;2.50;;;;;;;12.52;71.70;100546.31;4969813;28;102223;-50
2021/12/06 06:23:03;;;;;;;6.60;2.95;;;;;;;12.51;71.72;100550.13;4959313;28;102477;-50
2021/12/06 06:25:29;;;;;;;5.88;2.72;;;;;;;12.52;71.46;100551.78;4950615;28;104122;-51
2021/12/06 06:27:56;;;;;;;4.82;2.60;;;;;;;12.52;71.54;100550.97;4973907;28;102475;-51
2021/12/06 06:30:23;;;;;;;6.00;3.00;;;;;;;12.52;71.95;100550.97;4973682;28;102189;-50
2021/12/06 06:32:50;;;;;;;6.15;2.92;;;;;;;12.52;71.75;100549.06;4966472;28;102264;-50
2021/12/06 06:35:17;;;;;;;4.88;2.45;;;;;;;12.53;71.85;100541.69;4975643;28;103923;-51
2021/12/06 06:37:45;;;;;;;5.28;2.75;;;;;;;12.52;71.78;100527.22;4956984;28;102968;-50
2021/12/06 06:40:12;;;;;;;4.55;2.83;;;;;;;12.53;72.18;100526.09;4955303;28;102021;-50
2021/12/06 06:42:38;;;;;;;6.90;2.90;;;;;;;12.52;71.95;100527.22;4944289;28;102767;-51
2021/12/06 06:45:06;;;;;;;7.25;3.60;;;;;;;12.53;71.95;100536.22;4951926;28;103913;-51
2021/12/06 06:47:34;;;;;;;3.65;3.00;;;;;;;12.53;71.56;100536.22;4970579;28;102187;-50
2021/12/06 06:50:00;;;;;;;5.43;2.97;;;;;;;12.53;71.75;100537.03;4959986;28;102191;-50
2021/12/06 06:52:26;;;;;;;4.78;2.70;;;;;;;12.54;71.87;100529.66;4950050;28;102440;-50
2021/12/06 06:54:55;;;;;;;9.77;3.30;;;;;;;12.54;72.06;100529.66;4972099;28;108001;-51
2021/12/06 06:57:21;;;;;;;7.05;2.80;;;;;;;12.54;71.82;100541.38;4974126;28;102141;-50
2021/12/06 06:59:48;;;;;;;10.23;3.42;;;;;;;12.54;72.06;100549.56;4957196;28;102311;-51
2021/12/06 07:02:14;;;;;;;5.18;3.10;;;;;;;12.53;71.90;100542.50;4954104;28;102407;-51
2021/12/06 07:04:42;;;;;;;7.85;3.42;;;;;;;12.53;71.97;100542.50;4951218;28;103991;-50
2021/12/06 07:07:08;;;;;;;5.28;3.13;;;;;;;12.54;71.91;100546.03;4953490;28;102468;-51
2021/12/06 07:09:35;;;;;;;5.40;3.10;;;;;;;12.55;71.65;100550.38;4965576;28;102587;-51
2021/12/06 07:12:04;;;;;;;5.32;3.25;;;;;;;12.54;71.91;100546.84;4957478;28;102272;-50
2021/12/06 07:14:31;;;;;;;7.10;3.20;;;;;;;12.54;71.94;100552.28;4956681;28;104090;-50
2021/12/06 07:16:58;;;;;;;6.40;3.05;;;;;;;12.55;72.24;100555.84;4966415;28;102049;-50
2021/12/06 07:19:31;;;;;;;7.25;3.65;;;;;;;12.55;72.13;100567.59;4951466;28;102165;-51
2021/12/06 07:21:59;;;;;;;6.03;3.00;;;;;;;12.56;72.28;100568.41;4954108;28;102638;-50
2021/12/06 07:24:26;;;;;;;6.65;3.08;;;;;;;12.55;71.85;100561.28;4952508;28;106193;-50
2021/12/06 07:26:53;;;;;;;5.90;3.08;;;;;;;12.55;72.11;100572.22;4972430;28;102264;-50
2021/12/06 07:29:21;;;;;;;10.25;3.67;;;;;;;12.55;71.86;100567.59;4974463;28;102261;-50
2021/12/06 07:31:47;;;;;;;9.02;3.17;;;;;;;12.55;72.04;100572.22;4974690;28;102459;-50
2021/12/06 07:34:14;;;;;;;6.65;3.47;;;;;;;12.55;71.95;100567.59;4968311;28;103847;-50
2021/12/06 07:36:42;;;;;;;6.53;3.63;;;;;;;12.55;71.84;100567.59;4973201;28;102107;-50
2021/12/06 07:39:10;;;;;;;4.43;2.83;;;;;;;12.56;72.01;100569.22;4962680;28;102422;-50
2021/12/06 07:41:37;;;;;;;8.68;3.47;;;;;;;12.56;72.38;100569.22;4975396;28;103850;-50
2021/12/06 07:44:04;;;;;;;7.45;3.17;;;;;;;12.56;71.98;100574.66;4964878;28;103992;-50
2021/12/06 07:46:32;;;;;;;7.05;3.15;;;;;;;12.56;71.65;100563.75;4974991;28;102118;-50
2021/12/06 07:48:59;;;;;;;11.48;3.70;;;;;;;12.56;72.07;100569.22;4969199;28;102449;-50
2021/12/06 07:51:26;;;;;;;32.05;4.07;;;;;;;12.56;71.87;100563.75;4971577;28;102232;-50
2021/12/06 07:53:54;;;;;;;7.20;3.10;;;;;;;12.57;72.38;100564.56;4961400;28;105491;-51
2021/12/06 07:56:21;;;;;;;11.95;3.50;;;;;;;12.57;72.21;100559.91;4962146;28;102345;-50
2021/12/06 07:58:49;;;;;;;30.40;4.85;;;;;;;12.58;72.01;100564.25;4962951;28;102009;-51
2021/12/06 08:01:16;;;;;;;10.60;3.72;;;;;;;12.57;72.03;100561.84;4942034;28;102387;-50
2021/12/06 08:03:44;;;;;;;7.10;3.33;;;;;;;12.58;72.12;100552.53;4946113;28;105332;-50
2021/12/06 08:06:10;;;;;;;8.27;3.93;;;;;;;12.59;72.07;100557.72;4950972;28;102262;-50
2021/12/06 08:08:39;;;;;;;6.05;2.83;;;;;;;12.58;71.88;100550.63;4951633;28;103808;-50
2021/12/06 08:11:10;;;;;;;6.22;3.30;;;;;;;12.59;71.81;100559.63;4961721;28;102222;-50
2021/12/06 08:13:39;;;;;;;6.82;3.60;;;;;;;12.59;72.30;100552.25;4959244;28;103816;-51
2021/12/06 08:16:08;;;;;;;5.80;3.03;;;;;;;12.58;72.31;100564.25;4956215;28;102942;-51
2021/12/06 08:18:36;;;;;;;6.25;3.72;;;;;;;12.59;72.07;100568.63;4953255;28;102364;-50
2021/12/06 08:21:04;;;;;;;7.85;3.25;;;;;;;12.59;72.06;100560.44;4950937;28;103120;-50
2021/12/06 08:23:31;;;;;;;7.25;3.88;;;;;;;12.60;71.96;100558.53;4948766;28;104035;-50
2021/12/06 08:25:58;;;;;;;7.63;3.30;;;;;;;12.60;72.33;100564.78;4952546;28;102700;-50
2021/12/06 08:28:28;;;;;;;9.90;3.22;;;;;;;12.59;72.10;100565.91;4950835;28;102387;-50
2021/12/06 08:30:55;;;;;;;7.30;3.20;;;;;;;12.60;72.15;100564.00;4951850;28;102820;-50
2021/12/06 08:33:22;;;;;;;8.88;3.25;;;;;;;12.60;72.00;100559.34;4945009;28;103612;-50
2021/12/06 08:35:54;;;;;;;7.65;3.20;;;;;;;12.60;72.16;100559.34;4953260;28;102469;-49
2021/12/06 08:38:24;;;;;;;7.03;3.65;;;;;;;12.61;72.21;100555.50;4952258;28;102304;-50
2021/12/06 08:40:51;;;;;;;6.35;3.38;;;;;;;12.61;72.14;100550.03;4956145;28;102454;-50
2021/12/06 08:43:19;;;;;;;8.15;3.63;;;;;;;12.61;72.21;100543.78;4944430;28;103877;-50
2021/12/06 08:45:50;;;;;;;7.72;3.38;;;;;;;12.61;72.22;100547.31;4952920;28;102121;-50
2021/12/06 08:48:17;;;;;;;9.65;3.20;;;;;;;12.61;72.14;100539.13;4950937;28;102516;-50
2021/12/06 08:50:45;;;;;;;6.93;3.20;;;;;;;12.61;72.65;100539.13;4953275;28;102188;-50
2021/12/06 08:53:12;;;;;;;7.03;3.55;;;;;;;12.61;72.17;100528.19;4951626;28;103964;-50
2021/12/06 08:55:40;;;;;;;7.68;3.30;;;;;;;12.62;72.44;100529.84;4951345;28;102420;-50
2021/12/06 08:58:07;;;;;;;6.37;3.40;;;;;;;12.61;72.25;100522.75;4951731;28;102545;-50
2021/12/06 09:00:36;;;;;;;8.00;3.75;;;;;;;12.61;72.44;100511.00;4972957;28;102137;-51
2021/12/06 09:03:03;;;;;;;7.88;3.70;;;;;;;12.61;72.14;100517.28;4952096;28;103954;-50
2021/12/06 09:05:34;;;;;;;7.25;3.47;;;;;;;12.61;72.39;100528.19;4956068;28;102314;-50
2021/12/06 09:08:00;;;;;;;8.00;3.40;;;;;;;12.62;72.23;100520.81;4972012;28;102280;-50
2021/12/06 09:10:34;;;;;;;7.50;3.90;;;;;;;12.62;72.37;100515.34;4965263;28;104086;-50
2021/12/06 09:13:04;;;;;;;7.07;3.20;;;;;;;12.63;72.35;100526.00;4953252;28;104204;-51
2021/12/06 09:15:32;;;;;;;8.18;3.78;;;;;;;12.62;72.35;100513.47;4955940;28;102509;-50
2021/12/06 09:17:59;;;;;;;8.73;3.40;;;;;;;12.63;72.20;100511.53;4948507;28;103774;-50
2021/12/06 09:20:30;;;;;;;7.22;3.92;;;;;;;12.63;72.38;100503.34;4951812;28;102310;-50
2021/12/06 09:22:56;;;;;;;6.32;3.70;;;;;;;12.62;72.41;100502.53;4958861;28;104019;-50
2021/12/06 09:25:24;;;;;;;8.98;4.05;;;;;;;12.63;72.42;100504.16;4970460;28;102341;-50
2021/12/06 09:27:50;;;;;;;8.32;3.80;;;;;;;12.63;72.15;100493.25;4960255;28;102315;-50
2021/12/06 09:34:08;;;;;;;7.00;3.80;;;;;;;12.64;72.41;100483.13;5038743;27;102741;-91
2021/12/06 09:37:46;;;;;;;;;;;;;;;;;;;;;
2021/12/06 09:40:27;;;;;;;9.40;4.63;;;;;;;12.63;72.25;100476.88;4998792;22;102957;-50
2021/12/06 09:42:56;;;;;;;8.63;4.72;;;;;;;12.64;72.43;100462.09;5001935;28;103209;-50
2021/12/06 09:45:28;;;;;;;11.40;4.43;;;;;;;12.63;72.30;100465.94;5001167;28;102699;-50
2021/12/06 09:47:55;;;;;;;10.60;4.43;;;;;;;12.64;72.51;100469.47;5001766;27;102443;-50
2021/12/06 09:50:27;;;;;;;7.60;4.45;;;;;;;12.64;72.41;100466.75;4996239;28;103876;-50
2021/12/06 09:52:56;;;;;;;10.05;4.85;;;;;;;12.63;72.70;100465.94;5006083;28;102268;-50
2021/12/06 09:55:26;;;;;;;10.10;5.07;;;;;;;12.63;72.55;100465.13;5008247;27;104077;-50
2021/12/06 09:57:53;;;;;;;7.72;4.57;;;;;;;12.63;72.42;100460.47;5019163;27;102319;-50
2021/12/06 10:00:22;;;;;;;9.13;4.43;;;;;;;12.64;72.49;100456.63;5027812;27;103950;-50
2021/12/06 10:02:48;;;;;;;10.98;4.65;;;;;;;12.64;72.42;100461.28;5019899;27;102728;-50
2021/12/06 10:05:15;;;;;;;8.93;4.53;;;;;;;12.64;72.50;100462.09;5017743;28;102429;-50
2021/12/06 10:07:44;;;;;;;11.77;4.80;;;;;;;12.64;72.66;100456.63;5022566;27;102478;-50
2021/12/06 10:10:13;;;;;;;10.25;5.13;;;;;;;12.64;72.71;100453.09;5022094;27;103880;-50
2021/12/06 10:12:42;;;;;;;11.00;4.97;;;;;;;12.64;72.51;100456.63;5018333;27;103331;-51
2021/12/06 10:15:09;;;;;;;8.80;5.00;;;;;;;12.64;72.62;100456.63;5018219;28;102325;-50
2021/12/06 10:17:36;;;;;;;9.25;4.47;;;;;;;12.64;72.89;100456.63;5006515;27;103438;-50
2021/12/06 10:20:06;;;;;;;9.77;5.05;;;;;;;12.64;72.58;100456.63;5003939;27;103719;-50
2021/12/06 10:22:33;;;;;;;8.68;4.85;;;;;;;12.64;72.51;100440.25;5018115;27;102190;-50
2021/12/06 10:25:01;;;;;;;10.57;4.93;;;;;;;12.64;72.69;100440.25;5013941;28;102581;-50
2021/12/06 10:27:28;;;;;;;11.65;5.80;;;;;;;12.65;72.58;100441.06;5022217;27;102236;-50
2021/12/06 10:30:01;;;;;;;10.52;5.22;;;;;;;12.65;72.78;100444.59;5016651;27;103998;-51
2021/12/06 10:32:31;;;;;;;12.40;5.53;;;;;;;12.65;72.67;100450.06;5018074;27;103454;-51
2021/12/06 10:35:02;;;;;;;9.07;5.00;;;;;;;12.65;72.55;100450.06;5022030;28;102058;-50
2021/12/06 10:37:36;;;;;;;7.85;4.63;;;;;;;12.64;72.69;100445.72;5018252;28;102485;-50
2021/12/06 10:40:09;;;;;;;10.52;4.88;;;;;;;12.65;72.69;100450.06;5023742;27;103841;-50
2021/12/06 10:42:39;;;;;;;9.95;4.95;;;;;;;12.65;72.72;100441.88;5038877;27;102416;-50
2021/12/06 10:45:08;;;;;;;9.02;5.07;;;;;;;12.64;72.77;100437.53;5027544;28;102463;-50
2021/12/06 10:47:35;;;;;;;8.68;4.20;;;;;;;12.66;72.50;100443.53;5028171;28;102495;-50
2021/12/06 10:50:15;;;;;;;9.90;4.88;;;;;;;12.67;72.71;100438.88;5024035;28;103861;-50
2021/12/06 10:52:54;;;;;;;9.68;5.10;;;;;;;12.67;72.76;100436.13;5022891;28;102484;-50
2021/12/06 10:55:26;;;;;;;11.00;4.83;;;;;;;12.66;72.80;100438.06;5027377;28;102224;-50
2021/12/06 10:57:56;;;;;;;8.15;4.35;;;;;;;12.67;72.88;100445.16;5022030;28;102406;-50
2021/12/06 11:00:31;;;;;;;8.40;4.78;;;;;;;12.66;72.78;100438.06;5014538;28;104062;-50
2021/12/06 11:02:57;;;;;;;10.20;4.80;;;;;;;12.67;72.76;100430.69;5011944;27;102072;-50
2021/12/06 11:05:27;;;;;;;10.32;5.53;;;;;;;12.69;72.68;100439.38;5009629;28;102471;-50
2021/12/06 11:08:06;;;;;;;7.07;4.55;;;;;;;12.69;72.96;100434.75;5025796;28;102672;-50
2021/12/06 11:10:36;;;;;;;;;;;;;;;12.68;72.82;100430.38;5007416;28;103785;-50
2021/12/06 11:13:20;;;;;;;10.05;5.38;;;;;;;12.69;73.04;100432.03;5021841;28;102300;-50
2021/12/06 11:15:57;;;;;;;8.75;4.75;;;;;;;12.70;72.75;100427.38;5011788;28;102176;-64
2021/12/06 11:18:32;;;;;;;32.33;7.40;;;;;;;12.70;72.81;100422.72;5011169;28;102454;-53
2021/12/06 11:20:59;;;;;;;14.98;6.07;;;;;;;12.70;72.94;100417.25;5007587;28;103808;-54
2021/12/06 11:23:26;;;;;;;11.82;6.38;;;;;;;12.71;72.75;100424.34;5001213;28;102509;-54
2021/12/06 11:25:58;;;;;;;13.18;5.60;;;;;;;12.70;73.09;100422.72;5008375;28;102513;-54
2021/12/06 11:28:27;;;;;;;9.02;5.22;;;;;;;12.69;72.92;100417.53;5008296;28;102180;-54
2021/12/06 11:31:00;;;;;;;11.90;5.38;;;;;;;12.70;72.82;100411.78;5003333;28;103705;-53
2021/12/06 11:33:30;;;;;;;11.38;5.45;;;;;;;12.70;72.92;100406.34;5003336;28;102590;-54
2021/12/06 11:35:57;;;;;;;12.32;5.97;;;;;;;12.70;72.71;100403.59;5005699;28;102169;-54
2021/12/06 11:38:26;;;;;;;12.85;5.97;;;;;;;12.70;72.81;100400.88;5009054;28;102588;-53
2021/12/06 11:40:57;;;;;;;11.70;5.78;;;;;;;12.70;72.95;100406.34;5002148;28;104886;-54
2021/12/06 11:43:25;;;;;;;10.00;5.65;;;;;;;12.70;73.05;100406.34;5006520;28;103219;-54
2021/12/06 11:45:55;;;;;;;12.25;5.95;;;;;;;12.70;73.02;100411.78;5003716;28;102177;-54